Time;durP1;ratioP1;P1;durP2;ratioP2;P2;SDS_P1;SDS_P2;PMS_P1;PMS_P2;Temp;Humidity;BMP_temperature;BMP_pressure;BME280_temperature;BME280_humidity;BME280_pressure;Samples;Min_cycle;Max_cycle;Signal;HPM_P1;HPM_P2
2021/05/03 00:01:38;;;;;;;2.97;2.55;;;23.00;35.90;;;;;;6068425;28;81007;-63
2021/05/03 00:04:38;;;;;;;4.60;2.85;;;23.00;36.20;;;;;;6062059;28;80641;-64
2021/05/03 00:07:38;;;;;;;4.10;2.72;;;23.00;35.80;;;;;;6065443;28;80394;-63
2021/05/03 00:10:39;;;;;;;3.75;2.92;;;23.00;36.10;;;;;;6061299;28;80625;-64
2021/05/03 00:13:39;;;;;;;3.78;3.13;;;23.00;35.80;;;;;;6057380;28;80403;-64
2021/05/03 00:16:40;;;;;;;3.30;2.47;;;23.00;35.60;;;;;;6059202;28;80182;-64
2021/05/03 00:19:40;;;;;;;4.15;3.20;;;23.00;35.80;;;;;;6062056;28;80551;-64
2021/05/03 00:22:41;;;;;;;4.28;2.78;;;23.00;35.80;;;;;;6060830;28;81100;-64
2021/05/03 00:25:42;;;;;;;4.97;2.78;;;23.00;36.00;;;;;;6069917;28;83055;-64
2021/05/03 00:28:42;;;;;;;3.42;3.03;;;23.00;35.90;;;;;;6061964;28;80690;-65
2021/05/03 00:31:42;;;;;;;4.57;2.88;;;23.00;35.60;;;;;;6062610;28;80447;-64
2021/05/03 00:34:43;;;;;;;6.15;2.83;;;23.00;36.20;;;;;;6066017;28;80602;-64
2021/05/03 00:37:44;;;;;;;3.28;2.53;;;23.00;35.90;;;;;;6058921;28;89126;-64
2021/05/03 00:40:44;;;;;;;3.90;2.83;;;22.90;35.60;;;;;;6060853;28;83382;-67
2021/05/03 00:43:45;;;;;;;5.60;2.83;;;23.00;35.60;;;;;;6058854;28;80954;-64
2021/05/03 00:46:45;;;;;;;4.53;2.90;;;22.90;35.30;;;;;;6065768;28;80454;-65
2021/05/03 00:49:46;;;;;;;4.88;2.83;;;22.90;35.20;;;;;;6065587;28;81452;-64
2021/05/03 00:52:46;;;;;;;4.15;2.45;;;22.90;35.70;;;;;;6064129;28;80429;-64
2021/05/03 00:55:47;;;;;;;2.80;2.40;;;22.90;35.60;;;;;;6059036;28;81758;-64
2021/05/03 00:58:47;;;;;;;7.32;3.08;;;22.90;35.30;;;;;;6060327;28;81188;-64
2021/05/03 01:01:48;;;;;;;3.95;2.53;;;22.90;35.30;;;;;;6064803;28;80381;-64
2021/05/03 01:04:48;;;;;;;3.85;2.70;;;22.90;35.40;;;;;;6060580;28;80700;-64
2021/05/03 01:07:49;;;;;;;3.20;2.40;;;22.90;35.40;;;;;;6058734;28;81453;-63
2021/05/03 01:10:49;;;;;;;3.25;2.10;;;22.90;35.40;;;;;;6063263;28;80690;-66
2021/05/03 01:13:50;;;;;;;5.03;2.90;;;22.90;34.90;;;;;;6061080;28;83419;-66
2021/05/03 01:16:50;;;;;;;3.22;2.90;;;22.90;35.00;;;;;;6064157;28;80424;-65
2021/05/03 01:19:51;;;;;;;3.63;2.55;;;22.90;35.00;;;;;;6064366;28;80994;-65
2021/05/03 01:22:54;;;;;;;2.85;2.47;;;22.90;35.20;;;;;;6057511;28;81662;-64
2021/05/03 01:25:55;;;;;;;4.68;3.20;;;23.00;35.50;;;;;;6062450;28;80616;-64
2021/05/03 01:28:55;;;;;;;3.70;2.85;;;22.90;35.10;;;;;;6067220;28;80478;-64
2021/05/03 01:31:56;;;;;;;5.20;3.55;;;22.90;35.30;;;;;;6063983;28;80230;-64
2021/05/03 01:34:56;;;;;;;4.00;3.00;;;22.90;35.60;;;;;;6064522;28;79992;-64
2021/05/03 01:37:57;;;;;;;3.83;2.40;;;22.90;35.60;;;;;;6065223;28;81212;-64
2021/05/03 01:40:57;;;;;;;4.72;2.95;;;22.90;35.50;;;;;;6065823;28;81577;-64
2021/05/03 01:43:58;;;;;;;3.55;2.70;;;22.90;35.40;;;;;;6064196;28;80549;-64
2021/05/03 01:46:58;;;;;;;2.95;2.63;;;22.90;35.60;;;;;;6065091;28;81527;-64
2021/05/03 01:49:59;;;;;;;3.22;2.70;;;22.90;35.50;;;;;;6064730;28;83735;-64
2021/05/03 01:52:59;;;;;;;5.22;2.83;;;22.90;35.70;;;;;;6066195;28;80403;-64
2021/05/03 01:56:00;;;;;;;3.45;2.70;;;22.90;35.50;;;;;;6065561;28;80519;-64
2021/05/03 01:59:00;;;;;;;4.38;2.80;;;22.90;35.70;;;;;;6065674;28;80587;-65
2021/05/03 02:02:01;;;;;;;5.10;3.35;;;22.90;35.90;;;;;;6065810;28;80507;-64
2021/05/03 02:05:01;;;;;;;3.38;2.92;;;22.90;35.60;;;;;;6065489;28;81814;-64
2021/05/03 02:08:02;;;;;;;3.55;3.20;;;22.90;35.80;;;;;;6064517;28;81101;-64
2021/05/03 02:11:02;;;;;;;4.68;3.38;;;22.90;35.70;;;;;;6066714;28;80333;-64
2021/05/03 02:14:03;;;;;;;4.18;3.00;;;22.90;35.60;;;;;;6064971;28;82113;-64
2021/05/03 02:17:04;;;;;;;4.38;2.78;;;22.90;35.80;;;;;;6067887;28;80896;-64
2021/05/03 02:20:04;;;;;;;4.90;2.85;;;22.90;36.00;;;;;;6061541;28;81530;-64
2021/05/03 02:23:05;;;;;;;3.72;2.78;;;22.90;35.70;;;;;;6063969;28;80386;-64
2021/05/03 02:26:05;;;;;;;3.33;2.95;;;22.90;36.20;;;;;;6045401;28;80561;-64
2021/05/03 02:29:06;;;;;;;4.18;2.40;;;22.90;35.70;;;;;;6075137;28;81701;-64
2021/05/03 02:32:06;;;;;;;4.72;2.63;;;22.90;35.70;;;;;;6062647;28;80501;-65
2021/05/03 02:35:07;;;;;;;3.28;2.70;;;22.90;36.00;;;;;;6064937;28;80328;-65
2021/05/03 02:38:09;;;;;;;3.33;2.60;;;22.80;35.90;;;;;;6065848;28;82489;-65
2021/05/03 02:41:09;;;;;;;4.50;3.28;;;22.90;36.30;;;;;;6059751;28;80235;-64
2021/05/03 02:44:10;;;;;;;3.88;3.13;;;22.80;36.10;;;;;;6061206;28;80798;-64
2021/05/03 02:47:10;;;;;;;7.05;3.28;;;22.80;35.60;;;;;;6045635;28;80506;-65
2021/05/03 02:50:11;;;;;;;2.83;2.53;;;22.80;35.70;;;;;;6066940;28;80997;-64
2021/05/03 02:53:11;;;;;;;3.10;2.70;;;22.80;36.50;;;;;;6066588;28;80622;-64
2021/05/03 02:56:12;;;;;;;4.07;2.88;;;22.90;36.30;;;;;;6069815;28;80903;-65
2021/05/03 02:59:12;;;;;;;4.00;2.80;;;22.90;36.10;;;;;;6072242;28;81041;-64
2021/05/03 03:02:13;;;;;;;3.67;2.83;;;22.90;35.90;;;;;;6068982;28;80324;-65
2021/05/03 03:05:13;;;;;;;3.90;2.88;;;22.90;35.90;;;;;;6062523;28;80502;-64
2021/05/03 03:08:14;;;;;;;4.00;3.13;;;22.80;35.80;;;;;;6065553;28;81827;-65
2021/05/03 03:11:14;;;;;;;3.80;2.88;;;22.80;35.90;;;;;;6066945;28;80390;-64
2021/05/03 03:14:15;;;;;;;5.38;3.42;;;22.80;36.00;;;;;;6063053;28;80749;-64
2021/05/03 03:17:16;;;;;;;3.10;2.70;;;22.80;36.30;;;;;;6060667;28;80550;-64
2021/05/03 03:20:16;;;;;;;4.80;2.70;;;22.80;35.90;;;;;;6063906;28;80917;-64
2021/05/03 03:23:17;;;;;;;5.00;3.40;;;22.90;35.90;;;;;;6065415;28;80095;-63
2021/05/03 03:26:17;;;;;;;3.72;2.60;;;22.80;36.00;;;;;;6060956;28;80918;-64
2021/05/03 03:29:18;;;;;;;4.28;2.67;;;22.80;35.90;;;;;;6062684;28;91008;-63
2021/05/03 03:32:18;;;;;;;3.40;2.60;;;22.80;36.00;;;;;;6064002;28;81237;-63
2021/05/03 03:35:19;;;;;;;3.03;2.63;;;22.80;36.00;;;;;;6059070;28;80589;-64
2021/05/03 03:38:20;;;;;;;3.33;2.40;;;22.80;36.00;;;;;;6038899;28;689986;-64
2021/05/03 03:41:20;;;;;;;3.85;2.90;;;22.80;36.00;;;;;;6065660;28;83213;-64
2021/05/03 03:44:21;;;;;;;3.88;3.00;;;22.80;35.90;;;;;;6060232;28;80884;-63
2021/05/03 03:47:21;;;;;;;2.72;2.20;;;22.80;36.10;;;;;;6069390;28;80751;-63
2021/05/03 03:50:22;;;;;;;4.53;2.95;;;22.80;36.10;;;;;;6061972;28;80921;-64
2021/05/03 03:53:22;;;;;;;3.38;2.55;;;22.80;35.80;;;;;;6060893;28;80754;-65
2021/05/03 03:56:23;;;;;;;4.35;2.30;;;22.80;36.30;;;;;;6064748;28;80922;-63
2021/05/03 03:59:24;;;;;;;3.58;2.65;;;22.80;35.90;;;;;;6069408;28;80438;-61
2021/05/03 04:02:24;;;;;;;3.47;2.55;;;22.80;36.30;;;;;;6065311;28;80930;-64
2021/05/03 04:05:47;;;;;;;9.38;2.53;;;22.80;36.40;;;;;;6060139;28;80656;-64
2021/05/03 04:08:57;;;;;;;2.50;2.22;;;22.90;36.80;;;;;;6064725;28;80850;-63
2021/05/03 04:24:56;;;;;;;3.65;2.40;;;22.90;37.50;;;;;;6054442;28;81584;-66
2021/05/03 04:27:57;;;;;;;3.92;2.30;;;22.90;37.10;;;;;;6035349;28;80764;-65
2021/05/03 04:30:57;;;;;;;5.25;2.35;;;22.90;37.20;;;;;;6059662;28;82279;-64
2021/05/03 04:33:58;;;;;;;2.25;1.83;;;22.90;38.00;;;;;;6065948;28;80771;-63
2021/05/03 04:36:58;;;;;;;2.47;2.13;;;22.90;37.40;;;;;;6064533;28;80631;-63
2021/05/03 04:39:59;;;;;;;2.85;2.33;;;22.90;37.50;;;;;;6071204;28;81557;-63
2021/05/03 04:42:59;;;;;;;4.65;2.40;;;22.90;37.50;;;;;;6052743;28;81673;-63
2021/05/03 04:46:00;;;;;;;2.17;1.98;;;22.90;37.50;;;;;;6064193;28;81396;-64
2021/05/03 04:49:00;;;;;;;2.67;2.00;;;22.90;37.90;;;;;;6061624;28;80505;-64
2021/05/03 04:52:01;;;;;;;4.10;2.30;;;23.00;37.70;;;;;;6063484;28;80764;-65
2021/05/03 04:55:01;;;;;;;5.47;1.92;;;22.90;37.60;;;;;;6058551;28;82352;-64
2021/05/03 04:58:02;;;;;;;2.00;1.80;;;23.00;38.60;;;;;;6059479;28;80224;-64
2021/05/03 05:01:02;;;;;;;1.83;1.73;;;22.90;38.30;;;;;;6061817;28;81164;-62
2021/05/03 05:04:03;;;;;;;3.45;2.00;;;23.00;37.90;;;;;;6058749;28;82179;-63
2021/05/03 05:07:03;;;;;;;3.00;2.20;;;23.00;37.80;;;;;;6063949;28;80583;-64
2021/05/03 05:10:04;;;;;;;3.42;2.00;;;23.00;37.50;;;;;;6060402;28;80522;-63
2021/05/03 05:13:04;;;;;;;3.75;2.35;;;23.00;37.50;;;;;;6057780;28;80433;-63
2021/05/03 05:16:06;;;;;;;4.25;2.35;;;23.00;38.40;;;;;;6061438;28;91397;-63
2021/05/03 05:19:06;;;;;;;4.78;2.35;;;23.00;38.50;;;;;;6063700;28;80703;-63
2021/05/03 05:22:07;;;;;;;4.80;2.40;;;23.00;38.90;;;;;;6056349;28;81533;-63
2021/05/03 05:25:07;;;;;;;5.03;2.80;;;23.00;39.20;;;;;;6063126;28;80429;-63
2021/05/03 05:28:08;;;;;;;3.97;2.47;;;23.10;39.20;;;;;;6027563;28;82827;-64
2021/05/03 05:31:08;;;;;;;5.82;2.40;;;23.10;39.40;;;;;;6064901;28;80487;-64
2021/05/03 05:34:09;;;;;;;3.42;2.35;;;23.10;39.50;;;;;;6062408;28;81777;-64
2021/05/03 05:37:11;;;;;;;3.20;2.30;;;23.10;39.50;;;;;;6060341;28;80717;-65
2021/05/03 05:40:11;;;;;;;4.57;2.08;;;23.10;39.50;;;;;;6059405;28;81623;-64
2021/05/03 05:43:12;;;;;;;4.03;2.35;;;23.10;39.20;;;;;;6059488;28;80410;-64
2021/05/03 05:46:13;;;;;;;4.35;2.13;;;23.10;39.50;;;;;;6065422;28;80595;-64
2021/05/03 05:49:13;;;;;;;2.67;2.30;;;23.10;39.50;;;;;;5975199;28;81338;-64
2021/05/03 05:52:14;;;;;;;3.58;2.33;;;23.20;39.60;;;;;;6052121;28;81894;-64
2021/05/03 05:55:14;;;;;;;10.30;2.42;;;23.10;40.00;;;;;;6061656;28;82100;-64
2021/05/03 05:58:18;;;;;;;6.10;2.35;;;23.20;39.80;;;;;;6055779;28;80493;-64
2021/05/03 06:01:18;;;;;;;3.25;2.15;;;23.20;39.70;;;;;;6053321;28;81083;-63
2021/05/03 06:04:19;;;;;;;4.50;2.28;;;23.20;39.40;;;;;;6051462;28;80887;-68
2021/05/03 06:07:20;;;;;;;1.90;1.80;;;23.10;39.20;;;;;;6056192;28;80998;-63
2021/05/03 06:10:21;;;;;;;2.88;1.90;;;23.20;39.40;;;;;;6059879;28;81472;-62
2021/05/03 06:13:21;;;;;;;3.15;2.08;;;23.20;39.60;;;;;;6056135;28;80442;-63
2021/05/03 06:16:22;;;;;;;3.05;1.95;;;23.20;39.30;;;;;;6065897;28;80373;-64
2021/05/03 06:19:22;;;;;;;2.00;1.65;;;23.20;39.20;;;;;;6059201;28;80478;-63
2021/05/03 06:22:23;;;;;;;2.67;2.08;;;23.10;39.10;;;;;;6056988;28;80472;-63
2021/05/03 06:25:24;;;;;;;3.47;2.00;;;23.20;38.90;;;;;;6057879;28;80940;-63
2021/05/03 06:28:24;;;;;;;3.85;1.80;;;23.20;38.70;;;;;;6066768;28;80528;-62
2021/05/03 06:31:25;;;;;;;2.95;1.60;;;23.20;38.40;;;;;;6064168;28;80848;-63
2021/05/03 06:34:29;;;;;;;3.15;2.10;;;23.20;38.50;;;;;;6063354;28;80039;-64
2021/05/03 06:37:30;;;;;;;3.97;2.33;;;23.20;38.60;;;;;;6061528;28;82945;-61
2021/05/03 06:40:30;;;;;;;2.72;2.17;;;23.20;38.70;;;;;;6072687;28;80671;-61
2021/05/03 06:43:34;;;;;;;3.20;1.65;;;23.20;38.80;;;;;;6069995;28;80546;-62
2021/05/03 06:46:34;;;;;;;1.85;1.60;;;23.20;38.90;;;;;;6064998;28;80136;-63
2021/05/03 06:49:35;;;;;;;1.90;1.60;;;23.20;38.80;;;;;;6059148;28;81624;-63
2021/05/03 06:52:37;;;;;;;1.95;1.55;;;23.20;38.70;;;;;;6061642;28;80542;-65
2021/05/03 06:55:37;;;;;;;1.80;1.60;;;23.30;38.50;;;;;;6071103;28;80200;-64
2021/05/03 06:58:38;;;;;;;3.05;1.75;;;23.30;38.40;;;;;;6057651;28;80825;-64
2021/05/03 07:01:38;;;;;;;3.38;1.80;;;23.20;38.10;;;;;;6058630;28;80871;-64
2021/05/03 07:04:39;;;;;;;2.47;1.60;;;23.30;38.00;;;;;;6065275;28;81055;-64
2021/05/03 07:07:40;;;;;;;3.92;1.67;;;23.20;37.80;;;;;;6068482;28;80470;-62
2021/05/03 07:10:44;;;;;;;2.03;1.73;;;23.30;37.80;;;;;;6063195;28;81035;-63
2021/05/03 07:13:44;;;;;;;2.00;1.77;;;23.30;37.70;;;;;;6065252;28;80251;-63
2021/05/03 07:16:45;;;;;;;1.88;1.65;;;23.20;38.10;;;;;;6060216;28;81257;-63
2021/05/03 07:19:45;;;;;;;2.47;1.67;;;23.20;38.40;;;;;;6060216;28;80602;-64
2021/05/03 07:22:46;;;;;;;2.70;2.10;;;23.30;38.50;;;;;;6057028;28;80572;-64
2021/05/03 07:25:46;;;;;;;3.05;1.90;;;23.30;38.10;;;;;;6062109;28;80836;-64
2021/05/03 07:28:47;;;;;;;2.60;1.92;;;23.30;38.10;;;;;;6059242;28;81000;-63
2021/05/03 07:31:47;;;;;;;2.72;1.90;;;23.30;38.00;;;;;;6055340;28;80818;-64
2021/05/03 07:34:48;;;;;;;6.63;1.90;;;23.30;37.90;;;;;;6052467;28;80894;-65
2021/05/03 07:37:48;;;;;;;2.10;1.88;;;23.40;37.60;;;;;;6061906;28;81470;-65
2021/05/03 07:40:49;;;;;;;3.33;1.90;;;23.30;37.80;;;;;;6058858;28;81374;-66
2021/05/03 07:43:49;;;;;;;3.17;1.77;;;23.30;36.70;;;;;;6059389;28;81714;-65
2021/05/03 07:46:50;;;;;;;6.57;1.85;;;23.30;36.60;;;;;;6063366;28;81089;-63
2021/05/03 07:49:51;;;;;;;3.60;1.70;;;23.30;36.60;;;;;;6061642;28;80763;-65
2021/05/03 07:52:54;;;;;;;3.45;2.20;;;23.30;36.50;;;;;;6061774;28;81844;-65
2021/05/03 07:55:54;;;;;;;1.90;1.70;;;23.30;36.50;;;;;;6061881;28;80354;-64
2021/05/03 07:58:55;;;;;;;2.97;1.80;;;23.30;36.30;;;;;;6069068;28;80631;-64
2021/05/03 08:01:55;;;;;;;4.43;2.05;;;23.30;36.60;;;;;;6053906;28;80378;-63
2021/05/03 08:04:56;;;;;;;2.92;2.03;;;23.30;36.50;;;;;;6058323;28;80942;-63
2021/05/03 08:07:57;;;;;;;4.18;2.10;;;23.30;36.30;;;;;;6062213;28;81089;-63
2021/05/03 08:10:57;;;;;;;5.70;2.30;;;23.30;36.20;;;;;;6058082;28;80906;-64
2021/05/03 08:13:58;;;;;;;3.03;1.95;;;23.30;36.40;;;;;;6057380;28;81132;-64
2021/05/03 08:17:04;;;;;;;4.72;1.98;;;23.30;36.30;;;;;;6064394;28;80873;-64
2021/05/03 08:20:04;;;;;;;5.50;2.03;;;23.30;36.30;;;;;;6063332;28;80348;-65
2021/05/03 08:23:09;;;;;;;2.90;2.08;;;23.30;36.70;;;;;;6062785;28;80525;-64
2021/05/03 08:26:09;;;;;;;3.22;2.03;;;23.30;37.00;;;;;;6065275;28;80330;-63
2021/05/03 08:29:10;;;;;;;4.10;2.50;;;23.40;37.80;;;;;;6061820;28;84099;-66
2021/05/03 08:32:10;;;;;;;3.97;2.45;;;23.40;37.10;;;;;;6052939;28;80559;-64
2021/05/03 08:35:11;;;;;;;4.53;2.33;;;23.40;36.80;;;;;;6058506;28;81158;-63
2021/05/03 08:38:12;;;;;;;5.03;2.63;;;23.40;37.40;;;;;;6061212;28;80797;-64
2021/05/03 08:41:12;;;;;;;4.30;2.17;;;23.40;37.20;;;;;;6061878;28;81278;-64
2021/05/03 08:44:13;;;;;;;4.30;2.63;;;23.40;37.30;;;;;;6066080;28;81210;-63
2021/05/03 08:47:14;;;;;;;5.70;2.47;;;23.50;37.40;;;;;;6061999;28;81753;-64
2021/05/03 08:50:17;;;;;;;12.13;3.13;;;23.50;37.40;;;;;;6057484;28;80464;-64
2021/05/03 08:53:20;;;;;;;9.45;3.05;;;23.50;37.40;;;;;;6058165;28;80670;-63
2021/05/03 08:56:21;;;;;;;6.78;2.42;;;23.50;37.20;;;;;;6057536;28;80926;-64
2021/05/03 08:59:21;;;;;;;13.20;2.60;;;23.50;37.30;;;;;;6076349;28;82799;-63
2021/05/03 09:02:22;;;;;;;15.27;3.35;;;23.50;36.40;;;;;;6063948;28;82090;-65
2021/05/03 09:05:23;;;;;;;5.70;2.40;;;23.50;36.00;;;;;;6061067;28;80382;-62
2021/05/03 09:08:23;;;;;;;6.70;2.50;;;23.50;35.50;;;;;;6062648;28;80720;-62
2021/05/03 09:11:24;;;;;;;6.97;2.83;;;23.50;35.80;;;;;;6058146;28;80368;-62
2021/05/03 09:14:24;;;;;;;4.55;2.25;;;23.50;35.50;;;;;;6057925;28;80347;-65
2021/05/03 09:17:25;;;;;;;4.20;2.70;;;23.50;35.30;;;;;;6060966;28;80303;-65
2021/05/03 09:20:26;;;;;;;9.23;2.90;;;23.50;34.80;;;;;;6061459;28;80380;-67
2021/05/03 09:23:27;;;;;;;6.35;2.78;;;23.50;34.90;;;;;;6065972;28;80237;-65
2021/05/03 09:26:27;;;;;;;3.88;2.60;;;23.50;34.60;;;;;;6051507;28;80528;-65
2021/05/03 09:29:28;;;;;;;3.08;2.00;;;23.50;34.70;;;;;;6057117;28;80399;-65
2021/05/03 09:32:29;;;;;;;23.33;3.60;;;23.50;34.90;;;;;;6055661;28;81625;-66
2021/05/03 09:35:29;;;;;;;3.10;2.40;;;23.50;34.60;;;;;;6050758;28;80797;-65
2021/05/03 09:38:30;;;;;;;4.95;2.35;;;23.50;35.00;;;;;;6055035;28;81421;-64
2021/05/03 09:41:30;;;;;;;10.52;3.80;;;23.50;36.80;;;;;;6054434;28;81488;-65
2021/05/03 09:44:31;;;;;;;14.88;5.10;;;23.50;36.10;;;;;;6059829;28;82173;-65
2021/05/03 09:47:31;;;;;;;20.27;7.32;;;23.60;37.30;;;;;;6058051;28;82301;-64
2021/05/03 09:50:32;;;;;;;30.13;6.70;;;23.60;37.70;;;;;;6057560;28;80381;-66
2021/05/03 09:53:32;;;;;;;21.15;6.32;;;23.60;37.40;;;;;;6056649;28;82842;-64
2021/05/03 09:56:33;;;;;;;32.85;8.32;;;23.60;37.30;;;;;;6058857;28;80657;-64
2021/05/03 09:59:33;;;;;;;26.90;7.82;;;23.60;38.50;;;;;;6062475;28;81166;-65
2021/05/03 10:02:36;;;;;;;31.33;8.50;;;23.60;38.30;;;;;;6060394;28;81044;-64
2021/05/03 10:05:39;;;;;;;39.05;10.95;;;23.60;38.90;;;;;;6056827;28;80423;-63
2021/05/03 10:08:40;;;;;;;43.95;12.77;;;23.60;38.80;;;;;;6053163;28;83807;-65
2021/05/03 10:11:41;;;;;;;43.83;13.32;;;23.60;38.70;;;;;;6053510;28;83117;-65
2021/05/03 10:14:41;;;;;;;59.30;15.63;;;23.60;39.10;;;;;;6057335;28;83126;-64
2021/05/03 10:17:42;;;;;;;49.17;15.00;;;23.60;40.40;;;;;;6053620;28;83467;-63
2021/05/03 10:20:43;;;;;;;66.25;20.52;;;23.60;41.30;;;;;;6058087;28;83174;-65
2021/05/03 10:23:43;;;;;;;66.53;19.45;;;23.60;41.70;;;;;;6056169;28;84433;-64
2021/05/03 10:26:44;;;;;;;74.20;23.80;;;23.60;40.40;;;;;;6067196;28;83104;-64
2021/05/03 10:29:45;;;;;;;79.55;25.70;;;23.70;41.80;;;;;;6060122;28;83144;-65
2021/05/03 10:32:46;;;;;;;100.45;28.95;;;23.70;42.60;;;;;;6064962;28;83834;-65
2021/05/03 10:35:46;;;;;;;84.22;22.92;;;23.70;42.90;;;;;;6059742;28;82999;-64
2021/05/03 10:38:47;;;;;;;89.05;26.48;;;23.70;41.60;;;;;;6079155;28;89189;-65
2021/05/03 10:41:47;;;;;;;84.55;26.88;;;23.70;41.20;;;;;;6058855;28;86155;-64
2021/05/03 10:44:48;;;;;;;76.95;26.02;;;23.80;40.20;;;;;;6060672;28;83035;-64
2021/05/03 10:47:52;;;;;;;89.13;25.98;;;23.70;40.20;;;;;;6064526;28;83459;-64
2021/05/03 10:50:53;;;;;;;60.00;21.85;;;23.70;39.60;;;;;;6067599;28;83193;-62
2021/05/03 10:53:53;;;;;;;58.78;21.23;;;23.70;39.30;;;;;;6059909;28;83438;-64
2021/05/03 10:56:54;;;;;;;57.70;19.40;;;23.70;39.30;;;;;;6065752;28;83418;-62
2021/05/03 10:59:55;;;;;;;56.08;19.75;;;23.70;39.10;;;;;;6063618;28;82972;-63
2021/05/03 11:02:55;;;;;;;47.65;16.85;;;23.70;38.70;;;;;;6058894;28;83132;-65
2021/05/03 11:05:58;;;;;;;41.55;15.80;;;23.70;38.30;;;;;;6059198;28;86499;-61
2021/05/03 11:08:58;;;;;;;45.75;16.20;;;23.70;37.90;;;;;;6058355;28;83674;-64
2021/05/03 11:11:59;;;;;;;43.13;13.43;;;23.70;37.90;;;;;;6057416;28;83919;-63
2021/05/03 11:14:59;;;;;;;36.47;13.35;;;23.70;38.10;;;;;;6060819;28;83640;-63
2021/05/03 11:18:00;;;;;;;27.88;11.15;;;23.70;37.40;;;;;;6060762;28;84228;-64
2021/05/03 11:21:01;;;;;;;27.13;10.32;;;23.70;36.70;;;;;;6055663;28;83049;-62
2021/05/03 11:24:02;;;;;;;24.00;9.25;;;23.70;36.20;;;;;;6053441;28;84072;-64
2021/05/03 11:27:09;;;;;;;21.05;8.80;;;23.70;35.30;;;;;;6055843;28;82921;-64
2021/05/03 11:30:35;;;;;;;17.80;7.35;;;23.70;34.70;;;;;;6068800;28;83486;-64
2021/05/03 11:33:30;;;;;;;16.60;6.80;;;23.70;34.70;;;;;;6058302;28;80667;-64
2021/05/03 11:36:36;;;;;;;11.80;5.53;;;23.60;34.70;;;;;;6061849;28;81797;-65
2021/05/03 11:46:03;;;;;;;11.30;5.10;;;23.60;34.00;;;;;;6065320;28;80875;-64
2021/05/03 11:49:03;;;;;;;11.40;5.05;;;23.60;33.80;;;;;;6065749;28;80831;-63
2021/05/03 11:52:04;;;;;;;13.18;4.65;;;23.60;33.60;;;;;;6061675;28;80833;-63
2021/05/03 11:55:04;;;;;;;12.50;4.63;;;23.60;33.40;;;;;;6065488;28;81388;-63
2021/05/03 11:58:05;;;;;;;10.45;4.55;;;23.60;33.40;;;;;;6059875;28;80675;-65
2021/05/03 12:01:06;;;;;;;9.43;4.38;;;23.60;33.40;;;;;;6067514;28;81943;-66
2021/05/03 12:04:06;;;;;;;6.13;3.33;;;23.60;33.50;;;;;;6063048;28;80793;-67
2021/05/03 12:07:07;;;;;;;6.85;3.15;;;23.50;33.30;;;;;;6062730;28;80108;-65
2021/05/03 12:10:11;;;;;;;8.32;4.80;;;23.50;32.40;;;;;;6062210;28;80632;-65
2021/05/03 12:13:11;;;;;;;6.40;3.70;;;23.40;31.30;;;;;;6060149;28;81911;-65
2021/05/03 12:16:12;;;;;;;9.02;3.75;;;23.40;31.10;;;;;;6062286;28;81223;-65
2021/05/03 12:19:12;;;;;;;5.60;3.08;;;23.40;31.10;;;;;;6070407;28;83874;-65
2021/05/03 12:22:13;;;;;;;7.13;3.47;;;23.40;30.90;;;;;;6062680;28;83014;-65
2021/05/03 12:25:13;;;;;;;4.60;3.10;;;23.40;30.70;;;;;;6056231;28;80551;-66
2021/05/03 12:28:14;;;;;;;7.80;2.70;;;23.40;30.90;;;;;;6061573;28;80862;-66
2021/05/03 12:31:15;;;;;;;3.50;2.72;;;23.40;31.10;;;;;;6060784;28;80126;-66
2021/05/03 12:34:20;;;;;;;4.40;3.30;;;23.30;30.00;;;;;;6058257;28;83259;-65
2021/05/03 12:37:20;;;;;;;6.72;3.20;;;23.30;29.50;;;;;;6060996;28;80680;-66
2021/05/03 12:40:21;;;;;;;6.75;2.60;;;23.20;30.00;;;;;;6058617;28;84725;-65
2021/05/03 12:43:24;;;;;;;4.22;2.65;;;23.20;29.50;;;;;;6061394;28;80487;-65
2021/05/03 12:46:31;;;;;;;5.18;2.47;;;23.10;30.00;;;;;;6071573;28;80720;-66
2021/05/03 12:49:35;;;;;;;6.35;2.42;;;23.20;30.30;;;;;;6062434;28;81300;-66
2021/05/03 12:52:59;;;;;;;5.20;2.83;;;23.20;30.60;;;;;;6058995;28;90399;-65
2021/05/03 12:56:11;;;;;;;5.22;2.58;;;23.20;30.90;;;;;;6059595;28;84002;-65
2021/05/03 12:59:32;;;;;;;5.80;2.40;;;23.20;30.50;;;;;;6056200;28;81463;-65
2021/05/03 13:02:47;;;;;;;6.32;2.80;;;23.20;31.20;;;;;;6058631;28;80480;-63
2021/05/03 13:06:04;;;;;;;4.28;2.65;;;23.30;31.00;;;;;;6061801;28;80471;-64
2021/05/03 13:28:02;;;;;;;4.03;2.33;;;23.40;31.20;;;;;;6062626;28;81725;-69
2021/05/03 13:29:10;;;;;;;3.97;2.42;;;23.40;31.40;;;;;;6064459;28;86529;-64
2021/05/03 13:32:13;;;;;;;3.60;2.25;;;23.40;32.20;;;;;;6064700;28;81625;-65
2021/05/03 13:35:13;;;;;;;3.22;2.25;;;23.40;31.10;;;;;;6064034;28;80421;-61
2021/05/03 13:38:14;;;;;;;4.47;2.72;;;23.40;31.30;;;;;;6063545;28;81277;-65
2021/05/03 13:41:14;;;;;;;5.45;2.70;;;23.50;32.00;;;;;;6067173;28;80800;-64
2021/05/03 13:44:16;;;;;;;6.45;2.33;;;23.50;32.40;;;;;;6063627;28;81930;-65
2021/05/03 13:47:17;;;;;;;2.58;1.88;;;23.50;32.40;;;;;;6064639;28;81850;-65
2021/05/03 13:50:18;;;;;;;3.58;2.20;;;23.50;32.60;;;;;;6062444;28;81335;-64
2021/05/03 13:53:18;;;;;;;2.75;2.20;;;23.50;33.00;;;;;;6062752;28;81650;-65
2021/05/03 13:56:19;;;;;;;6.18;2.40;;;23.50;33.40;;;;;;6063043;28;80956;-64
2021/05/03 13:59:20;;;;;;;4.50;2.10;;;23.50;32.90;;;;;;6064405;28;80499;-62
2021/05/03 14:02:20;;;;;;;3.85;2.35;;;23.50;33.00;;;;;;6068585;28;80501;-61
2021/05/03 14:05:21;;;;;;;6.32;2.58;;;23.60;33.00;;;;;;6061795;28;84960;-62
2021/05/03 14:08:21;;;;;;;6.38;2.47;;;23.60;33.70;;;;;;6062430;28;80586;-62
2021/05/03 14:11:22;;;;;;;5.88;3.22;;;23.60;33.10;;;;;;6059473;28;81660;-62
2021/05/03 14:14:23;;;;;;;6.85;2.65;;;23.60;33.10;;;;;;6062808;28;81718;-62
2021/05/03 14:17:23;;;;;;;4.72;3.10;;;23.60;33.00;;;;;;6068622;28;80605;-64
2021/05/03 14:20:24;;;;;;;3.63;2.05;;;23.60;32.90;;;;;;6073892;28;81392;-63
2021/05/03 14:23:25;;;;;;;3.47;2.25;;;23.60;33.10;;;;;;6066159;28;82130;-64
2021/05/03 14:26:27;;;;;;;10.07;2.72;;;23.60;33.40;;;;;;6064898;28;80645;-64
2021/05/03 14:29:33;;;;;;;6.25;2.60;;;23.60;33.90;;;;;;6065096;28;83949;-63
2021/05/03 14:32:39;;;;;;;;;;;23.60;33.60;;;;;;6063723;28;80367;-64
2021/05/03 14:35:40;;;;;;;5.47;2.80;;;23.50;33.70;;;;;;6068782;28;80782;-65
2021/05/03 14:38:40;;;;;;;4.82;2.25;;;23.50;33.80;;;;;;6063404;28;80622;-62
2021/05/03 14:41:41;;;;;;;8.15;3.03;;;23.50;33.90;;;;;;6061810;28;80547;-64
2021/05/03 14:44:41;;;;;;;6.88;2.55;;;23.50;33.70;;;;;;6063360;28;81637;-62
2021/05/03 14:48:28;;;;;;;4.55;2.42;;;23.50;33.60;;;;;;6054260;28;80403;-64
2021/05/03 14:51:19;;;;;;;5.65;3.20;;;23.50;33.80;;;;;;6057999;28;80392;-65
2021/05/03 14:57:39;;;;;;;2.88;2.05;;;23.50;34.10;;;;;;6063456;28;80895;-63
2021/05/03 15:00:39;;;;;;;4.95;2.55;;;23.50;35.70;;;;;;6062621;28;81003;-64
2021/05/03 15:03:40;;;;;;;10.25;2.83;;;23.50;35.30;;;;;;6063083;28;81027;-63
2021/05/03 15:06:42;;;;;;;9.32;2.90;;;23.50;35.10;;;;;;6066146;28;81417;-64
2021/05/03 15:09:45;;;;;;;5.15;2.22;;;23.50;35.20;;;;;;6060855;28;80307;-63
2021/05/03 15:12:59;;;;;;;6.47;2.55;;;23.60;35.40;;;;;;6062048;28;85333;-63
2021/05/03 15:20:07;;;;;;;16.83;2.53;;;23.60;36.80;;;;;;6032912;28;81720;-63
2021/05/03 15:22:59;;;;;;;2.53;1.98;;;23.60;36.80;;;;;;6035131;28;80882;-64
2021/05/03 15:26:01;;;;;;;3.58;2.20;;;23.60;38.20;;;;;;6055441;28;80468;-64
2021/05/03 15:35:20;;;;;;;4.45;2.40;;;23.60;40.00;;;;;;6059707;28;80564;-64
2021/05/03 15:38:21;;;;;;;3.63;2.17;;;23.60;39.00;;;;;;6060284;28;80791;-64
2021/05/03 15:41:21;;;;;;;2.90;2.00;;;23.60;39.60;;;;;;6062478;28;81281;-64
2021/05/03 15:44:25;;;;;;;2.65;1.95;;;23.60;39.00;;;;;;6059370;28;80476;-63
2021/05/03 15:47:27;;;;;;;6.15;1.80;;;23.60;39.60;;;;;;6057911;28;82002;-65
2021/05/03 15:50:27;;;;;;;4.95;2.40;;;23.60;38.80;;;;;;6063911;28;83695;-65
2021/05/03 15:53:28;;;;;;;6.45;1.80;;;23.60;40.30;;;;;;6060719;28;80572;-62
2021/05/03 15:56:30;;;;;;;3.92;2.30;;;23.60;41.70;;;;;;6069735;28;80916;-63
2021/05/03 15:59:31;;;;;;;3.45;2.20;;;23.60;41.30;;;;;;6062863;28;81678;-62
2021/05/03 16:02:32;;;;;;;3.65;2.00;;;23.60;40.70;;;;;;6062930;28;80248;-64
2021/05/03 16:05:34;;;;;;;2.58;1.80;;;23.60;40.00;;;;;;6062575;28;80324;-64
2021/05/03 16:08:35;;;;;;;3.90;2.03;;;23.60;39.60;;;;;;6062372;28;80231;-65
2021/05/03 16:11:39;;;;;;;3.53;2.22;;;23.60;38.90;;;;;;6056960;28;81193;-65
2021/05/03 16:14:39;;;;;;;5.63;2.50;;;23.50;39.00;;;;;;6057861;28;80905;-64
2021/05/03 16:17:40;;;;;;;3.50;2.03;;;23.50;38.70;;;;;;6060154;28;80390;-64
2021/05/03 16:20:40;;;;;;;5.78;2.35;;;23.50;38.70;;;;;;6061891;28;82166;-64
2021/05/03 16:23:41;;;;;;;3.22;2.00;;;23.50;38.60;;;;;;6063675;28;80558;-63
2021/05/03 16:26:41;;;;;;;4.10;2.22;;;23.50;38.50;;;;;;6064731;28;82026;-64
2021/05/03 16:29:42;;;;;;;2.33;1.80;;;23.50;37.90;;;;;;6063594;28;80729;-65
2021/05/03 16:32:44;;;;;;;3.35;1.90;;;23.60;37.60;;;;;;6060962;28;80841;-64